Volcan De Teneguia — ECLA — position and weather

sailwx.info

Track history (hours):
 
Tides and Currents Weather Stations Pressure Air Temp Water Temp Dewpoint Dewpoint Depression Visibility Wind Speed Wind Dir Waves Ship Positions

Volcan De Teneguia

Last reported at 2014-Jul-22 23:17 UTC. Time now 2014-Jul-22 23:40 UTC.
Position N 34°24' W 009°01'.

Length 145 m; draft 5.3 m.

Type: Cargo ship. MMSI: 225317000.

Date/timePositionNaut miles runAvg speedWind from/ knotsBaromVisibWave heightAir tempDewpointWater temp
2014-Jul-22 23:17N 34°24' W 009°01'7415.6
2014-Jul-22 18:31N 35°21' W 008°01'1515.7
2014-Jul-22 17:33N 35°32' W 007°49'2015.3
2014-Jul-22 16:13N 35°47' W 007°33'1115.4
2014-Jul-22 15:29N 35°56' W 007°24'1415.3
2014-Jul-22 14:33N 36°07' W 007°12'1714.9
2014-Jul-22 13:26N 36°19' W 006°59'1314.7
2014-Jul-22 12:33N 36°29' W 006°48'  
2014-Jul-16 19:28N 31°08' W 012°22'1815.5
2014-Jul-16 18:20N 31°22' W 012°09'22815.2
2014-Jul-16 03:17N 34°14' W 009°12'12115.4
2014-Jul-15 19:27N 35°45' W 007°35'1515.3
2014-Jul-15 18:29N 35°57' W 007°24'1414.8
2014-Jul-15 17:31N 36°07' W 007°12'1414.8
2014-Jul-15 16:33N 36°18' W 007°00'1514.6
2014-Jul-15 15:33N 36°29' W 006°48'18 0.5
2014-Jul-14 01:33N 36°18' W 007°05'4 4.1
2014-Jul-14 00:34N 36°16' W 007°09'1414.3
2014-Jul-13 23:33N 36°04' W 007°19'1515.0
2014-Jul-13 22:33N 35°53' W 007°32'1414.5
2014-Jul-13 21:33N 35°44' W 007°45'1313.1
2014-Jul-13 20:33N 35°34' W 007°56'1813.4
2014-Jul-13 19:12N 35°21' W 008°12'914.0
2014-Jul-13 18:33N 35°15' W 008°20'  
Track history (hours):
 
Tides and Currents Weather Stations Pressure Air Temp Water Temp Dewpoint Dewpoint Depression Visibility Wind Speed Wind Dir Waves Ship Positions

Volcan De Teneguia

Last reported at 2014-Jul-22 23:17 UTC. Time now 2014-Jul-22 23:40 UTC.
Position N 34°24' W 009°01'.

Length 145 m; draft 5.3 m.

Type: Cargo ship. MMSI: 225317000.

Date/timePositionNaut miles runAvg speedWind from/ knotsBaromVisibWave heightAir tempDewpointWater temp
2014-Jul-22 23:17N 34°24' W 009°01'7415.6
2014-Jul-22 18:31N 35°21' W 008°01'1515.7
2014-Jul-22 17:33N 35°32' W 007°49'2015.3
2014-Jul-22 16:13N 35°47' W 007°33'1115.4
2014-Jul-22 15:29N 35°56' W 007°24'1415.3
2014-Jul-22 14:33N 36°07' W 007°12'1714.9
2014-Jul-22 13:26N 36°19' W 006°59'1314.7
2014-Jul-22 12:33N 36°29' W 006°48'  
2014-Jul-16 19:28N 31°08' W 012°22'1815.5
2014-Jul-16 18:20N 31°22' W 012°09'22815.2
2014-Jul-16 03:17N 34°14' W 009°12'12115.4
2014-Jul-15 19:27N 35°45' W 007°35'1515.3
2014-Jul-15 18:29N 35°57' W 007°24'1414.8
2014-Jul-15 17:31N 36°07' W 007°12'1414.8
2014-Jul-15 16:33N 36°18' W 007°00'1514.6
2014-Jul-15 15:33N 36°29' W 006°48'18 0.5
2014-Jul-14 01:33N 36°18' W 007°05'4 4.1
2014-Jul-14 00:34N 36°16' W 007°09'1414.3
2014-Jul-13 23:33N 36°04' W 007°19'1515.0
2014-Jul-13 22:33N 35°53' W 007°32'1414.5
2014-Jul-13 21:33N 35°44' W 007°45'1313.1
2014-Jul-13 20:33N 35°34' W 007°56'1813.4
2014-Jul-13 19:12N 35°21' W 008°12'914.0
2014-Jul-13 18:33N 35°15' W 008°20'  

Dump ship's entire track history